sensor_id;sensor_type;location;lat;lon;timestamp;pressure;altitude;pressure_sealevel;temperature;humidity
57801;BME280;43627;42.728;23.256;2023-03-04T00:02:23;95007.75;;;4.57;100.00
57801;BME280;43627;42.728;23.256;2023-03-04T00:04:50;95008.41;;;4.62;100.00
57801;BME280;43627;42.728;23.256;2023-03-04T00:07:16;95010.28;;;4.65;100.00
57801;BME280;43627;42.728;23.256;2023-03-04T00:09:44;94999.13;;;4.63;100.00
57801;BME280;43627;42.728;23.256;2023-03-04T00:12:11;95004.38;;;4.70;100.00
57801;BME280;43627;42.728;23.256;2023-03-04T00:14:38;95003.72;;;4.66;100.00
57801;BME280;43627;42.728;23.256;2023-03-04T00:17:05;94997.63;;;4.62;100.00
57801;BME280;43627;42.728;23.256;2023-03-04T00:19:32;95008.91;;;4.73;100.00
57801;BME280;43627;42.728;23.256;2023-03-04T00:22:01;94987.25;;;4.60;100.00
57801;BME280;43627;42.728;23.256;2023-03-04T00:24:28;95003.63;;;4.69;100.00
57801;BME280;43627;42.728;23.256;2023-03-04T00:26:55;95002.19;;;4.65;100.00
57801;BME280;43627;42.728;23.256;2023-03-04T00:29:22;95008.16;;;4.72;100.00
57801;BME280;43627;42.728;23.256;2023-03-04T00:31:48;94980.66;;;4.61;100.00
57801;BME280;43627;42.728;23.256;2023-03-04T00:34:15;94967.91;;;4.62;100.00
57801;BME280;43627;42.728;23.256;2023-03-04T00:36:42;94991.56;;;4.74;100.00
57801;BME280;43627;42.728;23.256;2023-03-04T00:39:10;94977.03;;;4.68;100.00
57801;BME280;43627;42.728;23.256;2023-03-04T00:41:38;94980.75;;;4.57;100.00
57801;BME280;43627;42.728;23.256;2023-03-04T00:44:05;94977.72;;;4.55;100.00
57801;BME280;43627;42.728;23.256;2023-03-04T00:46:31;94979.22;;;4.56;100.00
57801;BME280;43627;42.728;23.256;2023-03-04T00:48:58;94964.88;;;4.43;100.00
57801;BME280;43627;42.728;23.256;2023-03-04T00:51:25;94986.47;;;4.59;100.00
57801;BME280;43627;42.728;23.256;2023-03-04T00:53:51;94966.50;;;4.57;100.00
57801;BME280;43627;42.728;23.256;2023-03-04T00:56:18;94979.97;;;4.73;100.00
57801;BME280;43627;42.728;23.256;2023-03-04T00:58:44;94977.72;;;4.55;100.00
57801;BME280;43627;42.728;23.256;2023-03-04T01:01:11;94983.69;;;4.63;100.00
57801;BME280;43627;42.728;23.256;2023-03-04T01:03:38;94976.59;;;4.53;100.00
57801;BME280;43627;42.728;23.256;2023-03-04T01:06:07;94982.44;;;4.51;100.00
57801;BME280;43627;42.728;23.256;2023-03-04T01:08:34;94969.66;;;4.36;100.00
57801;BME280;43627;42.728;23.256;2023-03-04T01:11:00;94970.59;;;4.45;100.00
57801;BME280;43627;42.728;23.256;2023-03-04T01:13:27;94972.47;;;4.48;100.00
57801;BME280;43627;42.728;23.256;2023-03-04T01:15:54;94972.56;;;4.61;100.00
57801;BME280;43627;42.728;23.256;2023-03-04T01:18:21;94972.97;;;4.59;100.00
57801;BME280;43627;42.728;23.256;2023-03-04T01:20:48;94959.16;;;4.57;100.00
57801;BME280;43627;42.728;23.256;2023-03-04T01:23:14;94949.97;;;4.55;100.00
57801;BME280;43627;42.728;23.256;2023-03-04T01:25:41;94936.63;;;4.32;100.00
57801;BME280;43627;42.728;23.256;2023-03-04T01:28:08;94899.50;;;4.19;100.00
57801;BME280;43627;42.728;23.256;2023-03-04T01:30:34;94976.78;;;4.78;100.00
57801;BME280;43627;42.728;23.256;2023-03-04T01:33:01;94961.75;;;4.77;100.00
57801;BME280;43627;42.728;23.256;2023-03-04T01:35:28;94967.25;;;4.74;100.00
57801;BME280;43627;42.728;23.256;2023-03-04T01:37:54;94965.38;;;4.71;100.00
57801;BME280;43627;42.728;23.256;2023-03-04T01:40:21;94947.59;;;4.57;100.00
57801;BME280;43627;42.728;23.256;2023-03-04T01:42:48;94945.06;;;4.66;100.00
57801;BME280;43627;42.728;23.256;2023-03-04T01:45:16;94952.78;;;4.64;100.00
57801;BME280;43627;42.728;23.256;2023-03-04T01:47:45;94951.28;;;4.63;100.00
57801;BME280;43627;42.728;23.256;2023-03-04T01:52:44;94942.84;;;4.61;100.00
57801;BME280;43627;42.728;23.256;2023-03-04T01:55:16;94934.91;;;4.54;100.00
57801;BME280;43627;42.728;23.256;2023-03-04T01:57:46;94946.63;;;4.64;100.00
57801;BME280;43627;42.728;23.256;2023-03-04T02:00:23;94941.06;;;4.54;100.00
57801;BME280;43627;42.728;23.256;2023-03-04T02:02:54;94933.22;;;4.44;100.00
57801;BME280;43627;42.728;23.256;2023-03-04T02:05:22;94940.75;;;4.36;100.00
57801;BME280;43627;42.728;23.256;2023-03-04T02:07:50;94936.94;;;4.34;100.00
57801;BME280;43627;42.728;23.256;2023-03-04T02:10:18;94936.53;;;4.35;100.00
57801;BME280;43627;42.728;23.256;2023-03-04T02:12:45;94933.66;;;4.26;100.00
57801;BME280;43627;42.728;23.256;2023-03-04T02:15:12;94940.50;;;4.30;100.00
57801;BME280;43627;42.728;23.256;2023-03-04T02:17:39;94946.50;;;4.38;100.00
57801;BME280;43627;42.728;23.256;2023-03-04T02:20:14;94924.31;;;4.30;100.00
57801;BME280;43627;42.728;23.256;2023-03-04T02:22:53;94917.03;;;4.11;100.00
57801;BME280;43627;42.728;23.256;2023-03-04T02:25:30;94936.34;;;4.26;100.00
57801;BME280;43627;42.728;23.256;2023-03-04T02:27:58;94938.66;;;4.27;100.00
57801;BME280;43627;42.728;23.256;2023-03-04T02:30:25;94933.06;;;4.18;100.00
57801;BME280;43627;42.728;23.256;2023-03-04T02:32:52;94927.50;;;4.25;100.00
57801;BME280;43627;42.728;23.256;2023-03-04T02:35:20;94925.97;;;4.24;100.00
57801;BME280;43627;42.728;23.256;2023-03-04T02:37:47;94941.91;;;4.35;100.00
57801;BME280;43627;42.728;23.256;2023-03-04T02:40:26;94920.69;;;4.21;100.00
57801;BME280;43627;42.728;23.256;2023-03-04T02:42:58;94926.56;;;4.16;100.00
57801;BME280;43627;42.728;23.256;2023-03-04T02:45:55;94927.69;;;4.18;100.00
57801;BME280;43627;42.728;23.256;2023-03-04T02:48:22;94910.13;;;4.10;100.00
57801;BME280;43627;42.728;23.256;2023-03-04T02:50:51;94920.56;;;4.24;100.00
57801;BME280;43627;42.728;23.256;2023-03-04T02:53:19;94928.44;;;4.19;100.00
57801;BME280;43627;42.728;23.256;2023-03-04T02:55:47;94908.84;;;4.15;100.00
57801;BME280;43627;42.728;23.256;2023-03-04T02:58:14;94915.59;;;4.23;100.00
57801;BME280;43627;42.728;23.256;2023-03-04T03:00:41;94910.16;;;4.26;100.00
57801;BME280;43627;42.728;23.256;2023-03-04T03:03:08;94920.34;;;4.19;100.00
57801;BME280;43627;42.728;23.256;2023-03-04T03:05:36;94906.75;;;4.06;100.00
57801;BME280;43627;42.728;23.256;2023-03-04T03:08:03;94905.13;;;3.92;100.00
57801;BME280;43627;42.728;23.256;2023-03-04T03:10:30;94924.38;;;4.11;100.00
57801;BME280;43627;42.728;23.256;2023-03-04T03:12:57;94924.72;;;4.13;100.00
57801;BME280;43627;42.728;23.256;2023-03-04T03:15:23;94935.84;;;3.98;100.00
57801;BME280;43627;42.728;23.256;2023-03-04T03:17:50;94911.78;;;3.88;100.00
57801;BME280;43627;42.728;23.256;2023-03-04T03:20:18;94898.38;;;3.84;100.00
57801;BME280;43627;42.728;23.256;2023-03-04T03:22:45;94923.94;;;3.96;100.00
57801;BME280;43627;42.728;23.256;2023-03-04T03:25:13;94926.72;;;3.92;100.00
57801;BME280;43627;42.728;23.256;2023-03-04T03:27:40;94919.81;;;3.91;100.00
57801;BME280;43627;42.728;23.256;2023-03-04T03:30:09;94907.13;;;3.72;100.00
57801;BME280;43627;42.728;23.256;2023-03-04T03:32:37;94921.28;;;3.76;100.00
57801;BME280;43627;42.728;23.256;2023-03-04T03:35:04;94904.00;;;3.73;100.00
57801;BME280;43627;42.728;23.256;2023-03-04T03:37:31;94924.16;;;3.85;100.00
57801;BME280;43627;42.728;23.256;2023-03-04T03:39:58;94904.00;;;3.73;100.00
57801;BME280;43627;42.728;23.256;2023-03-04T03:42:24;94900.22;;;3.71;100.00
57801;BME280;43627;42.728;23.256;2023-03-04T03:44:51;94925.16;;;3.75;100.00
57801;BME280;43627;42.728;23.256;2023-03-04T03:47:18;94918.59;;;3.76;100.00
57801;BME280;43627;42.728;23.256;2023-03-04T03:49:44;94898.84;;;3.63;100.00
57801;BME280;43627;42.728;23.256;2023-03-04T03:52:11;94902.56;;;3.69;100.00
57801;BME280;43627;42.728;23.256;2023-03-04T03:54:37;94891.34;;;3.54;100.00
57801;BME280;43627;42.728;23.256;2023-03-04T03:57:04;94887.53;;;3.52;100.00
57801;BME280;43627;42.728;23.256;2023-03-04T03:59:32;94921.56;;;3.82;100.00
57801;BME280;43627;42.728;23.256;2023-03-04T04:01:58;94892.47;;;3.73;100.00
57801;BME280;43627;42.728;23.256;2023-03-04T04:04:25;94891.47;;;3.83;100.00
57801;BME280;43627;42.728;23.256;2023-03-04T04:06:52;94863.94;;;3.56;100.00
57801;BME280;43627;42.728;23.256;2023-03-04T04:09:19;94886.69;;;3.91;100.00
57801;BME280;43627;42.728;23.256;2023-03-04T04:11:45;94896.78;;;3.70;100.00
57801;BME280;43627;42.728;23.256;2023-03-04T04:14:12;94887.31;;;3.79;100.00
57801;BME280;43627;42.728;23.256;2023-03-04T04:16:39;94891.38;;;3.87;100.00
57801;BME280;43627;42.728;23.256;2023-03-04T04:19:06;94874.00;;;3.71;100.00
57801;BME280;43627;42.728;23.256;2023-03-04T04:21:33;94888.44;;;3.81;100.00
57801;BME280;43627;42.728;23.256;2023-03-04T04:23:59;94876.94;;;3.61;100.00
57801;BME280;43627;42.728;23.256;2023-03-04T04:26:26;94878.28;;;3.69;100.00
57801;BME280;43627;42.728;23.256;2023-03-04T04:28:53;94898.81;;;3.83;100.00
57801;BME280;43627;42.728;23.256;2023-03-04T04:31:19;94889.81;;;3.69;100.00
57801;BME280;43627;42.728;23.256;2023-03-04T04:33:46;94905.38;;;3.82;100.00
57801;BME280;43627;42.728;23.256;2023-03-04T04:36:14;94894.81;;;3.71;100.00
57801;BME280;43627;42.728;23.256;2023-03-04T04:38:41;94896.00;;;3.70;100.00
57801;BME280;43627;42.728;23.256;2023-03-04T04:41:38;94907.31;;;3.81;100.00
57801;BME280;43627;42.728;23.256;2023-03-04T04:44:05;94872.03;;;3.56;100.00
57801;BME280;43627;42.728;23.256;2023-03-04T04:46:32;94903.31;;;3.69;100.00
57801;BME280;43627;42.728;23.256;2023-03-04T04:48:59;94888.50;;;3.61;100.00
57801;BME280;43627;42.728;23.256;2023-03-04T04:51:26;94902.72;;;3.62;100.00
57801;BME280;43627;42.728;23.256;2023-03-04T04:53:54;94872.34;;;3.41;100.00
57801;BME280;43627;42.728;23.256;2023-03-04T04:56:22;94901.28;;;3.57;100.00
57801;BME280;43627;42.728;23.256;2023-03-04T04:58:53;94883.38;;;3.47;100.00
57801;BME280;43627;42.728;23.256;2023-03-04T05:01:21;94891.47;;;3.47;100.00
57801;BME280;43627;42.728;23.256;2023-03-04T05:03:49;94915.31;;;3.49;100.00
57801;BME280;43627;42.728;23.256;2023-03-04T05:06:16;94908.25;;;3.55;100.00
57801;BME280;43627;42.728;23.256;2023-03-04T05:08:42;94904.69;;;3.41;100.00
57801;BME280;43627;42.728;23.256;2023-03-04T05:11:09;94925.47;;;3.61;100.00
57801;BME280;43627;42.728;23.256;2023-03-04T05:13:36;94925.59;;;3.73;100.00
57801;BME280;43627;42.728;23.256;2023-03-04T05:16:03;94922.38;;;3.79;100.00
57801;BME280;43627;42.728;23.256;2023-03-04T05:18:30;94910.53;;;3.56;100.00
57801;BME280;43627;42.728;23.256;2023-03-04T05:20:59;94931.31;;;3.76;100.00
57801;BME280;43627;42.728;23.256;2023-03-04T05:23:30;94933.59;;;3.77;100.00
57801;BME280;43627;42.728;23.256;2023-03-04T05:25:57;94914.53;;;3.68;100.00
57801;BME280;43627;42.728;23.256;2023-03-04T05:28:23;94931.03;;;3.90;100.00
57801;BME280;43627;42.728;23.256;2023-03-04T05:30:50;94918.34;;;3.87;100.00
57801;BME280;43627;42.728;23.256;2023-03-04T05:33:17;94910.84;;;3.78;100.00
57801;BME280;43627;42.728;23.256;2023-03-04T05:35:45;94945.28;;;4.07;100.00
57801;BME280;43627;42.728;23.256;2023-03-04T05:38:15;94934.66;;;4.16;100.00
57801;BME280;43627;42.728;23.256;2023-03-04T05:40:43;94937.38;;;4.32;100.00
57801;BME280;43627;42.728;23.256;2023-03-04T05:43:10;94933.16;;;4.47;100.00
57801;BME280;43627;42.728;23.256;2023-03-04T05:45:37;94892.34;;;4.29;100.00
57801;BME280;43627;42.728;23.256;2023-03-04T05:48:05;94915.13;;;4.28;100.00
57801;BME280;43627;42.728;23.256;2023-03-04T05:50:31;94954.34;;;4.49;100.00
57801;BME280;43627;42.728;23.256;2023-03-04T05:52:58;94943.78;;;4.54;100.00
57801;BME280;43627;42.728;23.256;2023-03-04T05:55:26;94952.72;;;4.68;100.00
57801;BME280;43627;42.728;23.256;2023-03-04T05:57:54;94954.66;;;4.83;100.00
57801;BME280;43627;42.728;23.256;2023-03-04T06:00:22;94957.38;;;4.67;100.00
57801;BME280;43627;42.728;23.256;2023-03-04T06:02:49;94972.13;;;4.79;100.00
57801;BME280;43627;42.728;23.256;2023-03-04T06:05:16;94939.81;;;4.75;100.00
57801;BME280;43627;42.728;23.256;2023-03-04T06:07:43;94956.69;;;4.79;100.00
57801;BME280;43627;42.728;23.256;2023-03-04T06:10:12;94956.44;;;4.74;100.00
57801;BME280;43627;42.728;23.256;2023-03-04T06:12:40;94967.47;;;4.79;100.00
57801;BME280;43627;42.728;23.256;2023-03-04T06:15:07;94958.97;;;4.65;100.00
57801;BME280;43627;42.728;23.256;2023-03-04T06:17:36;94972.66;;;4.74;100.00
57801;BME280;43627;42.728;23.256;2023-03-04T06:20:08;94934.34;;;4.46;100.00
57801;BME280;43627;42.728;23.256;2023-03-04T06:22:35;94977.56;;;5.08;100.00
57801;BME280;43627;42.728;23.256;2023-03-04T06:25:02;94966.31;;;5.09;100.00
57801;BME280;43627;42.728;23.256;2023-03-04T06:27:29;94976.34;;;5.25;100.00
57801;BME280;43627;42.728;23.256;2023-03-04T06:29:56;94983.22;;;5.42;100.00
57801;BME280;43627;42.728;23.256;2023-03-04T06:32:22;94960.63;;;5.49;100.00
57801;BME280;43627;42.728;23.256;2023-03-04T06:34:49;94957.72;;;5.56;100.00
57801;BME280;43627;42.728;23.256;2023-03-04T06:37:16;94970.75;;;5.61;100.00
57801;BME280;43627;42.728;23.256;2023-03-04T06:39:43;94976.72;;;5.69;100.00
57801;BME280;43627;42.728;23.256;2023-03-04T06:42:11;94981.69;;;5.70;100.00
57801;BME280;43627;42.728;23.256;2023-03-04T06:44:38;94985.84;;;5.88;100.00
57801;BME280;43627;42.728;23.256;2023-03-04T06:47:04;94978.38;;;5.79;100.00
57801;BME280;43627;42.728;23.256;2023-03-04T06:49:31;94988.06;;;5.77;100.00
57801;BME280;43627;42.728;23.256;2023-03-04T06:51:58;94988.25;;;5.57;100.00
57801;BME280;43627;42.728;23.256;2023-03-04T06:54:24;94987.47;;;5.56;100.00
57801;BME280;43627;42.728;23.256;2023-03-04T06:56:51;94971.13;;;5.47;100.00
57801;BME280;43627;42.728;23.256;2023-03-04T06:59:18;94999.53;;;5.68;100.00
57801;BME280;43627;42.728;23.256;2023-03-04T07:01:44;94983.66;;;5.70;100.00
57801;BME280;43627;42.728;23.256;2023-03-04T07:04:12;94986.44;;;5.66;100.00
57801;BME280;43627;42.728;23.256;2023-03-04T07:06:39;94975.16;;;5.55;100.00
57801;BME280;43627;42.728;23.256;2023-03-04T07:09:06;94993.00;;;5.53;100.00
57801;BME280;43627;42.728;23.256;2023-03-04T07:11:32;95001.47;;;5.67;100.00
57801;BME280;43627;42.728;23.256;2023-03-04T07:13:59;94999.19;;;5.66;100.00
57801;BME280;43627;42.728;23.256;2023-03-04T07:16:26;95013.47;;;5.66;100.00
57801;BME280;43627;42.728;23.256;2023-03-04T07:18:53;95005.28;;;5.70;100.00
57801;BME280;43627;42.728;23.256;2023-03-04T07:21:19;94992.97;;;5.82;100.00
57801;BME280;43627;42.728;23.256;2023-03-04T07:23:46;95010.53;;;5.90;100.00
57801;BME280;43627;42.728;23.256;2023-03-04T07:26:13;95015.78;;;5.97;100.00
57801;BME280;43627;42.728;23.256;2023-03-04T07:28:40;95008.09;;;6.08;100.00
57801;BME280;43627;42.728;23.256;2023-03-04T07:31:12;95011.34;;;6.16;100.00
57801;BME280;43627;42.728;23.256;2023-03-04T07:33:40;95008.44;;;6.36;100.00
57801;BME280;43627;42.728;23.256;2023-03-04T07:36:06;95003.25;;;6.54;100.00
57801;BME280;43627;42.728;23.256;2023-03-04T07:38:33;95004.44;;;6.66;100.00
57801;BME280;43627;42.728;23.256;2023-03-04T07:41:00;94994.88;;;6.74;100.00
57801;BME280;43627;42.728;23.256;2023-03-04T07:43:27;95005.06;;;6.70;100.00
57801;BME280;43627;42.728;23.256;2023-03-04T07:46:02;95016.13;;;6.50;100.00
57801;BME280;43627;42.728;23.256;2023-03-04T07:48:29;95010.06;;;6.58;100.00
57801;BME280;43627;42.728;23.256;2023-03-04T07:51:03;95006.13;;;6.72;100.00
57801;BME280;43627;42.728;23.256;2023-03-04T07:53:31;94984.72;;;6.65;100.00
57801;BME280;43627;42.728;23.256;2023-03-04T07:55:58;94987.31;;;6.56;100.00
57801;BME280;43627;42.728;23.256;2023-03-04T07:58:28;94991.84;;;6.84;100.00
57801;BME280;43627;42.728;23.256;2023-03-04T08:00:54;95000.31;;;6.48;100.00
57801;BME280;43627;42.728;23.256;2023-03-04T08:03:21;94995.13;;;6.28;100.00
57801;BME280;43627;42.728;23.256;2023-03-04T08:05:48;94999.78;;;6.41;100.00
57801;BME280;43627;42.728;23.256;2023-03-04T08:08:14;94985.47;;;6.27;100.00
57801;BME280;43627;42.728;23.256;2023-03-04T08:10:43;94994.00;;;6.13;100.00
57801;BME280;43627;42.728;23.256;2023-03-04T08:13:10;95002.03;;;6.17;100.00
57801;BME280;43627;42.728;23.256;2023-03-04T08:15:40;94989.81;;;6.38;100.00
57801;BME280;43627;42.728;23.256;2023-03-04T08:18:07;95001.50;;;6.35;100.00
57801;BME280;43627;42.728;23.256;2023-03-04T08:20:34;95000.09;;;6.30;100.00
57801;BME280;43627;42.728;23.256;2023-03-04T08:23:01;95000.66;;;6.38;100.00
57801;BME280;43627;42.728;23.256;2023-03-04T08:25:28;94982.00;;;6.27;100.00
57801;BME280;43627;42.728;23.256;2023-03-04T08:27:54;94997.16;;;6.50;100.00
57801;BME280;43627;42.728;23.256;2023-03-04T08:30:21;95005.97;;;6.54;100.00
57801;BME280;43627;42.728;23.256;2023-03-04T08:32:48;94952.00;;;6.21;100.00
57801;BME280;43627;42.728;23.256;2023-03-04T08:35:14;94996.19;;;6.69;100.00
57801;BME280;43627;42.728;23.256;2023-03-04T08:37:41;94998.66;;;6.76;100.00
57801;BME280;43627;42.728;23.256;2023-03-04T08:40:08;94999.47;;;6.99;100.00
57801;BME280;43627;42.728;23.256;2023-03-04T08:42:35;94967.88;;;6.70;100.00
57801;BME280;43627;42.728;23.256;2023-03-04T08:45:02;94992.16;;;6.86;100.00
57801;BME280;43627;42.728;23.256;2023-03-04T08:47:29;94983.69;;;6.84;100.00
57801;BME280;43627;42.728;23.256;2023-03-04T08:49:56;94994.09;;;6.86;100.00
57801;BME280;43627;42.728;23.256;2023-03-04T08:52:24;94993.78;;;6.84;100.00
57801;BME280;43627;42.728;23.256;2023-03-04T08:54:50;94968.53;;;6.74;100.00
57801;BME280;43627;42.728;23.256;2023-03-04T08:57:17;94959.78;;;6.57;100.00
57801;BME280;43627;42.728;23.256;2023-03-04T08:59:43;94973.53;;;6.76;100.00
57801;BME280;43627;42.728;23.256;2023-03-04T09:02:10;94981.66;;;6.76;100.00
57801;BME280;43627;42.728;23.256;2023-03-04T09:04:37;94976.59;;;7.12;100.00
57801;BME280;43627;42.728;23.256;2023-03-04T09:07:03;94988.19;;;7.13;100.00
57801;BME280;43627;42.728;23.256;2023-03-04T09:09:31;94983.06;;;7.15;100.00
57801;BME280;43627;42.728;23.256;2023-03-04T09:11:57;94965.53;;;7.07;100.00
57801;BME280;43627;42.728;23.256;2023-03-04T09:14:24;94963.72;;;7.26;100.00
57801;BME280;43627;42.728;23.256;2023-03-04T09:16:51;94971.19;;;7.34;100.00
57801;BME280;43627;42.728;23.256;2023-03-04T09:19:17;94975.31;;;7.61;100.00
57801;BME280;43627;42.728;23.256;2023-03-04T09:21:44;94964.19;;;7.68;100.00
57801;BME280;43627;42.728;23.256;2023-03-04T09:24:11;94968.75;;;8.02;100.00
57801;BME280;43627;42.728;23.256;2023-03-04T09:26:37;94962.47;;;8.14;100.00
57801;BME280;43627;42.728;23.256;2023-03-04T09:29:04;94955.00;;;8.27;100.00
57801;BME280;43627;42.728;23.256;2023-03-04T09:31:31;94953.03;;;8.28;100.00
57801;BME280;43627;42.728;23.256;2023-03-04T09:33:58;94940.38;;;8.25;100.00
57801;BME280;43627;42.728;23.256;2023-03-04T09:36:25;94964.97;;;8.30;100.00
57801;BME280;43627;42.728;23.256;2023-03-04T09:38:52;94939.16;;;8.26;100.00
57801;BME280;43627;42.728;23.256;2023-03-04T09:41:22;94959.66;;;8.58;100.00
57801;BME280;43627;42.728;23.256;2023-03-04T09:43:51;94938.84;;;8.33;98.23
57801;BME280;43627;42.728;23.256;2023-03-04T09:46:31;94940.97;;;8.29;99.65
57801;BME280;43627;42.728;23.256;2023-03-04T09:48:59;94953.41;;;8.39;98.98
57801;BME280;43627;42.728;23.256;2023-03-04T09:57:26;94952.00;;;8.75;100.00
57801;BME280;43627;42.728;23.256;2023-03-04T10:00:00;94951.31;;;8.52;98.01
57801;BME280;43627;42.728;23.256;2023-03-04T10:05:20;94941.97;;;8.44;100.00
57801;BME280;43627;42.728;23.256;2023-03-04T10:07:55;94946.94;;;8.46;100.00
57801;BME280;43627;42.728;23.256;2023-03-04T10:10:35;94918.69;;;8.43;100.00
57801;BME280;43627;42.728;23.256;2023-03-04T10:13:03;94936.22;;;8.51;98.05
57801;BME280;43627;42.728;23.256;2023-03-04T10:15:39;94920.44;;;8.68;98.79
57801;BME280;43627;42.728;23.256;2023-03-04T10:18:23;94903.81;;;8.57;99.04
57801;BME280;43627;42.728;23.256;2023-03-04T10:23:35;94924.63;;;8.60;100.00
57801;BME280;43627;42.728;23.256;2023-03-04T10:26:14;94919.84;;;8.33;100.00
57801;BME280;43627;42.728;23.256;2023-03-04T10:28:41;94913.25;;;8.43;100.00
57801;BME280;43627;42.728;23.256;2023-03-04T10:31:26;94912.72;;;8.67;100.00
57801;BME280;43627;42.728;23.256;2023-03-04T10:33:55;94910.34;;;8.87;100.00
57801;BME280;43627;42.728;23.256;2023-03-04T10:39:10;94891.91;;;9.19;96.87
57801;BME280;43627;42.728;23.256;2023-03-04T10:41:42;94886.91;;;9.26;93.81
57801;BME280;43627;42.728;23.256;2023-03-04T10:46:41;94883.38;;;9.62;88.71
57801;BME280;43627;42.728;23.256;2023-03-04T10:49:13;94890.38;;;9.45;89.42
57801;BME280;43627;42.728;23.256;2023-03-04T10:51:46;94890.25;;;9.30;91.88
57801;BME280;43627;42.728;23.256;2023-03-04T10:54:19;94877.41;;;9.22;97.45
57801;BME280;43627;42.728;23.256;2023-03-04T10:57:28;94866.81;;;9.24;100.00
57801;BME280;43627;42.728;23.256;2023-03-04T11:00:01;94876.66;;;9.12;99.17
57801;BME280;43627;42.728;23.256;2023-03-04T11:02:32;94855.97;;;9.05;97.18
57801;BME280;43627;42.728;23.256;2023-03-04T11:05:06;94871.94;;;9.40;92.14
57801;BME280;43627;42.728;23.256;2023-03-04T11:07:41;94858.34;;;9.49;89.74
57801;BME280;43627;42.728;23.256;2023-03-04T11:10:29;94844.69;;;9.58;86.40
57801;BME280;43627;42.728;23.256;2023-03-04T11:13:02;94845.06;;;9.84;90.61
57801;BME280;43627;42.728;23.256;2023-03-04T11:15:55;94847.84;;;10.08;88.35
57801;BME280;43627;42.728;23.256;2023-03-04T11:18:40;94842.44;;;9.99;86.31
57801;BME280;43627;42.728;23.256;2023-03-04T11:21:14;94840.25;;;10.12;86.59
57801;BME280;43627;42.728;23.256;2023-03-04T11:23:47;94838.31;;;10.03;84.17
57801;BME280;43627;42.728;23.256;2023-03-04T11:26:20;94833.47;;;10.08;83.16
57801;BME280;43627;42.728;23.256;2023-03-04T11:37:09;94820.69;;;9.90;82.03
57801;BME280;43627;42.728;23.256;2023-03-04T11:39:48;94814.44;;;9.56;84.40
57801;BME280;43627;42.728;23.256;2023-03-04T11:42:37;94812.44;;;9.66;87.95
57801;BME280;43627;42.728;23.256;2023-03-04T11:45:19;94791.00;;;9.59;91.31
57801;BME280;43627;42.728;23.256;2023-03-04T11:50:57;94802.84;;;9.89;87.50
57801;BME280;43627;42.728;23.256;2023-03-04T11:56:23;94799.22;;;9.40;88.92
57801;BME280;43627;42.728;23.256;2023-03-04T12:18:29;94757.06;;;10.50;76.88
57801;BME280;43627;42.728;23.256;2023-03-04T12:21:40;94772.41;;;10.47;77.07
57801;BME280;43627;42.728;23.256;2023-03-04T12:29:39;94765.69;;;9.34;84.96
57801;BME280;43627;42.728;23.256;2023-03-04T12:35:27;94759.09;;;9.59;86.32
57801;BME280;43627;42.728;23.256;2023-03-04T12:40:42;94739.72;;;9.90;88.71
57801;BME280;43627;42.728;23.256;2023-03-04T12:48:38;94735.22;;;10.11;81.38
57801;BME280;43627;42.728;23.256;2023-03-04T12:54:31;94722.72;;;9.48;89.62
57801;BME280;43627;42.728;23.256;2023-03-04T12:57:22;94723.22;;;9.70;91.46
57801;BME280;43627;42.728;23.256;2023-03-04T13:06:04;94718.63;;;9.43;91.24
57801;BME280;43627;42.728;23.256;2023-03-04T13:19:01;94700.94;;;9.48;91.61
57801;BME280;43627;42.728;23.256;2023-03-04T13:21:29;94706.97;;;9.52;92.32
57801;BME280;43627;42.728;23.256;2023-03-04T13:30:40;94682.00;;;9.20;95.73
57801;BME280;43627;42.728;23.256;2023-03-04T13:41:19;94696.72;;;9.37;92.11
57801;BME280;43627;42.728;23.256;2023-03-04T13:51:25;94692.22;;;8.92;100.00
57801;BME280;43627;42.728;23.256;2023-03-04T13:56:47;94686.47;;;8.81;100.00
57801;BME280;43627;42.728;23.256;2023-03-04T14:02:00;94668.97;;;8.91;100.00
57801;BME280;43627;42.728;23.256;2023-03-04T14:04:31;94673.63;;;8.91;100.00
57801;BME280;43627;42.728;23.256;2023-03-04T14:07:01;94649.38;;;8.69;100.00
57801;BME280;43627;42.728;23.256;2023-03-04T14:09:33;94666.28;;;8.73;100.00
57801;BME280;43627;42.728;23.256;2023-03-04T14:12:03;94653.94;;;8.53;100.00
57801;BME280;43627;42.728;23.256;2023-03-04T14:14:41;94655.56;;;8.60;100.00
57801;BME280;43627;42.728;23.256;2023-03-04T14:17:17;94638.97;;;8.58;100.00
57801;BME280;43627;42.728;23.256;2023-03-04T14:19:46;94645.75;;;8.72;100.00
57801;BME280;43627;42.728;23.256;2023-03-04T14:22:28;94663.13;;;8.74;100.00
57801;BME280;43627;42.728;23.256;2023-03-04T14:24:57;94653.16;;;8.62;100.00
57801;BME280;43627;42.728;23.256;2023-03-04T14:27:25;94662.84;;;8.63;100.00
57801;BME280;43627;42.728;23.256;2023-03-04T14:29:57;94647.44;;;8.60;100.00
57801;BME280;43627;42.728;23.256;2023-03-04T14:32:24;94659.94;;;8.67;100.00
57801;BME280;43627;42.728;23.256;2023-03-04T14:35:03;94641.94;;;8.78;100.00
57801;BME280;43627;42.728;23.256;2023-03-04T14:37:42;94649.31;;;8.87;100.00
57801;BME280;43627;42.728;23.256;2023-03-04T14:40:25;94642.22;;;8.90;100.00
57801;BME280;43627;42.728;23.256;2023-03-04T14:43:03;94617.47;;;8.78;100.00
57801;BME280;43627;42.728;23.256;2023-03-04T14:45:31;94611.94;;;8.73;100.00
57801;BME280;43627;42.728;23.256;2023-03-04T14:48:07;94644.50;;;8.91;100.00
57801;BME280;43627;42.728;23.256;2023-03-04T14:50:34;94624.88;;;8.78;100.00
57801;BME280;43627;42.728;23.256;2023-03-04T14:53:26;94630.50;;;8.74;100.00
57801;BME280;43627;42.728;23.256;2023-03-04T14:55:58;94630.13;;;8.91;100.00
57801;BME280;43627;42.728;23.256;2023-03-04T14:58:31;94619.88;;;8.85;100.00
57801;BME280;43627;42.728;23.256;2023-03-04T15:01:19;94639.63;;;8.95;100.00